sensor_id;sensor_type;location;lat;lon;timestamp;pressure;altitude;pressure_sealevel;temperature;humidity
5691;BME280;2870;42.680;23.364;2022-11-14T00:00:03;96280.88;;;6.07;95.54
5691;BME280;2870;42.680;23.364;2022-11-14T00:02:30;96286.69;;;6.04;94.36
5691;BME280;2870;42.680;23.364;2022-11-14T00:04:58;96282.13;;;6.12;93.81
5691;BME280;2870;42.680;23.364;2022-11-14T00:07:28;96286.72;;;6.15;92.29
5691;BME280;2870;42.680;23.364;2022-11-14T00:09:55;96284.03;;;5.83;92.54
5691;BME280;2870;42.680;23.364;2022-11-14T00:12:23;96283.50;;;5.74;92.08
5691;BME280;2870;42.680;23.364;2022-11-14T00:14:51;96279.59;;;5.54;93.20
5691;BME280;2870;42.680;23.364;2022-11-14T00:17:20;96279.25;;;5.36;94.75
5691;BME280;2870;42.680;23.364;2022-11-14T00:19:47;96274.47;;;5.36;94.77
5691;BME280;2870;42.680;23.364;2022-11-14T00:22:15;96279.81;;;5.40;94.87
5691;BME280;2870;42.680;23.364;2022-11-14T00:24:42;96274.03;;;5.06;95.20
5691;BME280;2870;42.680;23.364;2022-11-14T00:27:08;96281.66;;;4.79;97.14
5691;BME280;2870;42.680;23.364;2022-11-14T00:29:37;96279.03;;;4.70;98.31
5691;BME280;2870;42.680;23.364;2022-11-14T00:32:04;96275.75;;;4.66;98.55
5691;BME280;2870;42.680;23.364;2022-11-14T00:34:32;96279.91;;;4.50;99.99
5691;BME280;2870;42.680;23.364;2022-11-14T00:36:58;96279.63;;;4.80;98.69
5691;BME280;2870;42.680;23.364;2022-11-14T00:39:27;96279.78;;;4.65;99.19
5691;BME280;2870;42.680;23.364;2022-11-14T00:41:54;96274.13;;;4.54;99.98
5691;BME280;2870;42.680;23.364;2022-11-14T00:44:21;96280.66;;;4.51;100.00
5691;BME280;2870;42.680;23.364;2022-11-14T00:46:47;96277.38;;;4.52;100.00
5691;BME280;2870;42.680;23.364;2022-11-14T00:49:14;96278.03;;;4.42;100.00
5691;BME280;2870;42.680;23.364;2022-11-14T00:51:41;96277.94;;;4.31;100.00
5691;BME280;2870;42.680;23.364;2022-11-14T00:54:08;96273.25;;;4.42;100.00
5691;BME280;2870;42.680;23.364;2022-11-14T00:56:36;96271.16;;;4.63;100.00
5691;BME280;2870;42.680;23.364;2022-11-14T00:59:03;96273.63;;;4.56;100.00
5691;BME280;2870;42.680;23.364;2022-11-14T01:01:30;96268.50;;;4.80;100.00
5691;BME280;2870;42.680;23.364;2022-11-14T01:03:56;96267.53;;;4.83;100.00
5691;BME280;2870;42.680;23.364;2022-11-14T01:06:23;96265.34;;;4.98;100.00
5691;BME280;2870;42.680;23.364;2022-11-14T01:08:50;96268.91;;;4.99;100.00
5691;BME280;2870;42.680;23.364;2022-11-14T01:11:19;96265.28;;;5.24;100.00
5691;BME280;2870;42.680;23.364;2022-11-14T01:13:48;96263.09;;;5.40;100.00
5691;BME280;2870;42.680;23.364;2022-11-14T01:16:15;96261.13;;;5.46;100.00
5691;BME280;2870;42.680;23.364;2022-11-14T01:18:42;96266.13;;;5.42;100.00
5691;BME280;2870;42.680;23.364;2022-11-14T01:21:11;96265.09;;;5.34;100.00
5691;BME280;2870;42.680;23.364;2022-11-14T01:23:38;96256.97;;;5.30;100.00
5691;BME280;2870;42.680;23.364;2022-11-14T01:26:07;96257.56;;;5.45;100.00
5691;BME280;2870;42.680;23.364;2022-11-14T01:28:35;96255.34;;;5.61;100.00
5691;BME280;2870;42.680;23.364;2022-11-14T01:31:11;96241.19;;;5.64;100.00
5691;BME280;2870;42.680;23.364;2022-11-14T01:33:38;96249.38;;;5.79;100.00
5691;BME280;2870;42.680;23.364;2022-11-14T01:36:06;96250.59;;;5.78;100.00
5691;BME280;2870;42.680;23.364;2022-11-14T01:38:33;96249.03;;;5.66;100.00
5691;BME280;2870;42.680;23.364;2022-11-14T01:41:00;96245.00;;;5.67;100.00
5691;BME280;2870;42.680;23.364;2022-11-14T01:43:30;96244.81;;;5.87;100.00
5691;BME280;2870;42.680;23.364;2022-11-14T01:46:00;96240.25;;;5.84;100.00
5691;BME280;2870;42.680;23.364;2022-11-14T01:48:34;96236.22;;;5.85;100.00
5691;BME280;2870;42.680;23.364;2022-11-14T01:51:09;96230.72;;;6.02;100.00
5691;BME280;2870;42.680;23.364;2022-11-14T01:53:39;96224.63;;;5.92;100.00
5691;BME280;2870;42.680;23.364;2022-11-14T01:56:09;96217.22;;;5.83;100.00
5691;BME280;2870;42.680;23.364;2022-11-14T01:58:40;96221.78;;;5.87;100.00
5691;BME280;2870;42.680;23.364;2022-11-14T02:01:09;96224.50;;;5.64;100.00
5691;BME280;2870;42.680;23.364;2022-11-14T02:03:39;96223.44;;;5.50;100.00
5691;BME280;2870;42.680;23.364;2022-11-14T02:06:08;96224.66;;;5.44;100.00
5691;BME280;2870;42.680;23.364;2022-11-14T02:08:37;96217.31;;;5.41;100.00
5691;BME280;2870;42.680;23.364;2022-11-14T02:11:04;96217.25;;;5.29;100.00
5691;BME280;2870;42.680;23.364;2022-11-14T02:13:31;96220.09;;;5.41;100.00
5691;BME280;2870;42.680;23.364;2022-11-14T02:15:58;96209.91;;;5.26;100.00
5691;BME280;2870;42.680;23.364;2022-11-14T02:18:25;96208.91;;;5.29;100.00
5691;BME280;2870;42.680;23.364;2022-11-14T02:20:53;96209.66;;;5.24;100.00
5691;BME280;2870;42.680;23.364;2022-11-14T02:23:25;96216.72;;;5.25;100.00
5691;BME280;2870;42.680;23.364;2022-11-14T02:25:52;96213.41;;;5.21;100.00
5691;BME280;2870;42.680;23.364;2022-11-14T02:28:19;96215.94;;;5.19;100.00
5691;BME280;2870;42.680;23.364;2022-11-14T02:30:46;96219.28;;;5.29;100.00
5691;BME280;2870;42.680;23.364;2022-11-14T02:33:13;96221.09;;;5.38;100.00
5691;BME280;2870;42.680;23.364;2022-11-14T02:35:40;96216.00;;;5.30;100.00
5691;BME280;2870;42.680;23.364;2022-11-14T02:38:09;96219.97;;;5.18;100.00
5691;BME280;2870;42.680;23.364;2022-11-14T02:40:35;96211.66;;;5.24;100.00
5691;BME280;2870;42.680;23.364;2022-11-14T02:43:02;96212.88;;;5.12;100.00
5691;BME280;2870;42.680;23.364;2022-11-14T02:45:29;96213.28;;;4.99;100.00
5691;BME280;2870;42.680;23.364;2022-11-14T02:47:56;96208.19;;;4.92;100.00
5691;BME280;2870;42.680;23.364;2022-11-14T02:50:23;96208.97;;;4.98;100.00
5691;BME280;2870;42.680;23.364;2022-11-14T02:52:50;96207.00;;;5.04;100.00
5691;BME280;2870;42.680;23.364;2022-11-14T02:55:19;96201.56;;;4.84;100.00
5691;BME280;2870;42.680;23.364;2022-11-14T02:57:47;96206.53;;;4.68;100.00
5691;BME280;2870;42.680;23.364;2022-11-14T03:02:52;96203.63;;;4.89;100.00
5691;BME280;2870;42.680;23.364;2022-11-14T03:05:19;96199.06;;;4.86;100.00
5691;BME280;2870;42.680;23.364;2022-11-14T03:07:46;96204.25;;;5.10;100.00
5691;BME280;2870;42.680;23.364;2022-11-14T03:10:13;96203.84;;;5.28;100.00
5691;BME280;2870;42.680;23.364;2022-11-14T03:12:42;96200.06;;;5.31;100.00
5691;BME280;2870;42.680;23.364;2022-11-14T03:15:09;96207.06;;;5.15;100.00
5691;BME280;2870;42.680;23.364;2022-11-14T03:17:36;96179.63;;;4.91;100.00
5691;BME280;2870;42.680;23.364;2022-11-14T03:20:04;96196.53;;;4.88;100.00
5691;BME280;2870;42.680;23.364;2022-11-14T03:22:31;96194.28;;;4.92;100.00
5691;BME280;2870;42.680;23.364;2022-11-14T03:24:58;96191.72;;;4.83;100.00
5691;BME280;2870;42.680;23.364;2022-11-14T03:27:24;96197.94;;;4.66;100.00
5691;BME280;2870;42.680;23.364;2022-11-14T03:29:53;96203.34;;;4.49;100.00
5691;BME280;2870;42.680;23.364;2022-11-14T03:32:19;96202.72;;;4.66;100.00
5691;BME280;2870;42.680;23.364;2022-11-14T03:34:46;96201.25;;;4.76;100.00
5691;BME280;2870;42.680;23.364;2022-11-14T03:37:13;96207.06;;;4.41;100.00
5691;BME280;2870;42.680;23.364;2022-11-14T03:39:40;96200.50;;;4.12;100.00
5691;BME280;2870;42.680;23.364;2022-11-14T03:42:06;96196.41;;;4.34;100.00
5691;BME280;2870;42.680;23.364;2022-11-14T03:44:33;96196.34;;;4.28;100.00
5691;BME280;2870;42.680;23.364;2022-11-14T03:47:02;96199.34;;;4.56;100.00
5691;BME280;2870;42.680;23.364;2022-11-14T03:49:29;96197.81;;;4.23;100.00
5691;BME280;2870;42.680;23.364;2022-11-14T03:51:56;96202.22;;;4.36;100.00
5691;BME280;2870;42.680;23.364;2022-11-14T03:54:22;96178.34;;;4.18;100.00
5691;BME280;2870;42.680;23.364;2022-11-14T03:56:49;96190.19;;;4.18;100.00
5691;BME280;2870;42.680;23.364;2022-11-14T03:59:16;96183.47;;;3.99;100.00
5691;BME280;2870;42.680;23.364;2022-11-14T04:01:43;96189.88;;;4.11;100.00
5691;BME280;2870;42.680;23.364;2022-11-14T04:04:12;96195.06;;;3.97;100.00
5691;BME280;2870;42.680;23.364;2022-11-14T04:06:39;96196.69;;;4.10;100.00
5691;BME280;2870;42.680;23.364;2022-11-14T04:09:06;96189.03;;;4.31;100.00
5691;BME280;2870;42.680;23.364;2022-11-14T04:11:33;96190.09;;;4.07;100.00
5691;BME280;2870;42.680;23.364;2022-11-14T04:14:00;96187.31;;;4.07;100.00
5691;BME280;2870;42.680;23.364;2022-11-14T04:16:26;96191.03;;;3.72;100.00
5691;BME280;2870;42.680;23.364;2022-11-14T04:18:53;96189.72;;;3.94;100.00
5691;BME280;2870;42.680;23.364;2022-11-14T04:21:22;96189.81;;;3.79;100.00
5691;BME280;2870;42.680;23.364;2022-11-14T04:23:49;96191.69;;;3.88;100.00
5691;BME280;2870;42.680;23.364;2022-11-14T04:26:16;96191.00;;;3.47;100.00
5691;BME280;2870;42.680;23.364;2022-11-14T04:28:43;96189.13;;;3.38;100.00
5691;BME280;2870;42.680;23.364;2022-11-14T04:31:10;96181.75;;;3.55;100.00
5691;BME280;2870;42.680;23.364;2022-11-14T04:33:36;96158.13;;;3.39;100.00
5691;BME280;2870;42.680;23.364;2022-11-14T04:36:03;96182.53;;;3.15;100.00
5691;BME280;2870;42.680;23.364;2022-11-14T04:38:34;96179.53;;;3.39;100.00
5691;BME280;2870;42.680;23.364;2022-11-14T04:41:04;96181.38;;;3.42;100.00
5691;BME280;2870;42.680;23.364;2022-11-14T04:43:30;96180.78;;;3.58;100.00
5691;BME280;2870;42.680;23.364;2022-11-14T04:45:57;96180.03;;;3.84;100.00
5691;BME280;2870;42.680;23.364;2022-11-14T04:48:24;96180.94;;;3.49;100.00
5691;BME280;2870;42.680;23.364;2022-11-14T04:50:51;96182.38;;;3.44;100.00
5691;BME280;2870;42.680;23.364;2022-11-14T04:53:18;96177.81;;;3.41;100.00
5691;BME280;2870;42.680;23.364;2022-11-14T04:55:46;96183.06;;;3.60;100.00
5691;BME280;2870;42.680;23.364;2022-11-14T04:58:13;96168.44;;;3.59;100.00
5691;BME280;2870;42.680;23.364;2022-11-14T05:00:40;96178.91;;;3.50;100.00
5691;BME280;2870;42.680;23.364;2022-11-14T05:03:07;96178.91;;;3.70;100.00
5691;BME280;2870;42.680;23.364;2022-11-14T05:05:34;96174.69;;;3.54;100.00
5691;BME280;2870;42.680;23.364;2022-11-14T05:08:01;96180.16;;;3.49;100.00
5691;BME280;2870;42.680;23.364;2022-11-14T05:10:28;96185.44;;;3.47;100.00
5691;BME280;2870;42.680;23.364;2022-11-14T05:12:56;96183.56;;;3.58;100.00
5691;BME280;2870;42.680;23.364;2022-11-14T05:15:23;96193.19;;;3.63;100.00
5691;BME280;2870;42.680;23.364;2022-11-14T05:17:50;96188.84;;;3.82;100.00
5691;BME280;2870;42.680;23.364;2022-11-14T05:20:16;96198.66;;;3.78;100.00
5691;BME280;2870;42.680;23.364;2022-11-14T05:22:43;96189.88;;;3.85;100.00
5691;BME280;2870;42.680;23.364;2022-11-14T05:25:10;96163.72;;;3.65;100.00
5691;BME280;2870;42.680;23.364;2022-11-14T05:27:37;96195.59;;;3.76;100.00
5691;BME280;2870;42.680;23.364;2022-11-14T05:30:07;96201.16;;;3.76;100.00
5691;BME280;2870;42.680;23.364;2022-11-14T05:32:34;96197.97;;;3.62;100.00
5691;BME280;2870;42.680;23.364;2022-11-14T05:35:00;96200.59;;;3.71;100.00
5691;BME280;2870;42.680;23.364;2022-11-14T05:37:27;96194.63;;;4.05;100.00
5691;BME280;2870;42.680;23.364;2022-11-14T05:39:54;96195.56;;;3.70;100.00
5691;BME280;2870;42.680;23.364;2022-11-14T05:42:21;96194.50;;;3.67;100.00
5691;BME280;2870;42.680;23.364;2022-11-14T05:44:47;96199.13;;;3.76;100.00
5691;BME280;2870;42.680;23.364;2022-11-14T05:47:16;96202.13;;;3.72;100.00
5691;BME280;2870;42.680;23.364;2022-11-14T05:49:43;96205.59;;;3.67;100.00
5691;BME280;2870;42.680;23.364;2022-11-14T05:52:10;96203.06;;;3.43;100.00
5691;BME280;2870;42.680;23.364;2022-11-14T05:54:36;96211.25;;;3.99;100.00
5691;BME280;2870;42.680;23.364;2022-11-14T05:57:03;96205.56;;;3.88;100.00
5691;BME280;2870;42.680;23.364;2022-11-14T05:59:31;96205.41;;;3.51;100.00
5691;BME280;2870;42.680;23.364;2022-11-14T06:01:57;96208.81;;;3.60;100.00
5691;BME280;2870;42.680;23.364;2022-11-14T06:04:25;96206.84;;;3.66;100.00
5691;BME280;2870;42.680;23.364;2022-11-14T06:06:52;96209.19;;;3.73;100.00
5691;BME280;2870;42.680;23.364;2022-11-14T06:09:19;96168.88;;;3.11;100.00
5691;BME280;2870;42.680;23.364;2022-11-14T06:11:46;96208.66;;;3.49;100.00
5691;BME280;2870;42.680;23.364;2022-11-14T06:14:13;96221.41;;;3.61;100.00
5691;BME280;2870;42.680;23.364;2022-11-14T06:16:40;96219.31;;;3.77;100.00
5691;BME280;2870;42.680;23.364;2022-11-14T06:19:06;96220.97;;;3.89;100.00
5691;BME280;2870;42.680;23.364;2022-11-14T06:21:35;96226.19;;;3.81;100.00
5691;BME280;2870;42.680;23.364;2022-11-14T06:24:02;96230.66;;;3.99;100.00
5691;BME280;2870;42.680;23.364;2022-11-14T06:26:30;96231.94;;;3.78;100.00
5691;BME280;2870;42.680;23.364;2022-11-14T06:28:57;96227.88;;;4.25;100.00
5691;BME280;2870;42.680;23.364;2022-11-14T06:31:25;96224.28;;;4.19;100.00
5691;BME280;2870;42.680;23.364;2022-11-14T06:33:52;96223.09;;;4.25;100.00
5691;BME280;2870;42.680;23.364;2022-11-14T06:36:21;96226.16;;;4.28;100.00
5691;BME280;2870;42.680;23.364;2022-11-14T06:38:49;96217.19;;;4.44;100.00
5691;BME280;2870;42.680;23.364;2022-11-14T06:41:18;96222.97;;;4.40;100.00
5691;BME280;2870;42.680;23.364;2022-11-14T06:43:46;96222.31;;;4.51;100.00
5691;BME280;2870;42.680;23.364;2022-11-14T06:46:17;96220.94;;;4.41;100.00
5691;BME280;2870;42.680;23.364;2022-11-14T06:48:45;96217.66;;;4.42;100.00
5691;BME280;2870;42.680;23.364;2022-11-14T06:51:13;96218.09;;;4.61;100.00
5691;BME280;2870;42.680;23.364;2022-11-14T06:53:42;96217.19;;;4.44;100.00
5691;BME280;2870;42.680;23.364;2022-11-14T06:56:11;96207.66;;;4.50;100.00
5691;BME280;2870;42.680;23.364;2022-11-14T06:58:41;96206.97;;;4.61;100.00
5691;BME280;2870;42.680;23.364;2022-11-14T07:01:11;96215.41;;;4.72;100.00
5691;BME280;2870;42.680;23.364;2022-11-14T07:03:38;96195.91;;;4.67;100.00
5691;BME280;2870;42.680;23.364;2022-11-14T07:06:07;96206.97;;;4.61;100.00
5691;BME280;2870;42.680;23.364;2022-11-14T07:08:34;96212.75;;;4.58;100.00
5691;BME280;2870;42.680;23.364;2022-11-14T07:11:02;96210.31;;;4.65;100.00
5691;BME280;2870;42.680;23.364;2022-11-14T07:13:31;96205.88;;;4.53;100.00
5691;BME280;2870;42.680;23.364;2022-11-14T07:15:58;96197.00;;;4.81;100.00
5691;BME280;2870;42.680;23.364;2022-11-14T07:18:25;96202.63;;;4.55;100.00
5691;BME280;2870;42.680;23.364;2022-11-14T07:20:56;96204.97;;;4.62;100.00
5691;BME280;2870;42.680;23.364;2022-11-14T07:23:24;96211.91;;;5.20;100.00
5691;BME280;2870;42.680;23.364;2022-11-14T07:25:51;96212.06;;;5.54;98.42
5691;BME280;2870;42.680;23.364;2022-11-14T07:28:19;96198.44;;;5.67;96.80
5691;BME280;2870;42.680;23.364;2022-11-14T07:30:47;96183.81;;;5.18;97.50
5691;BME280;2870;42.680;23.364;2022-11-14T07:33:15;96201.66;;;4.95;99.36
5691;BME280;2870;42.680;23.364;2022-11-14T07:35:42;96205.44;;;5.46;98.06
5691;BME280;2870;42.680;23.364;2022-11-14T07:38:09;96213.28;;;5.47;98.64
5691;BME280;2870;42.680;23.364;2022-11-14T07:40:36;96201.69;;;5.60;97.02
5691;BME280;2870;42.680;23.364;2022-11-14T07:43:03;96197.16;;;5.57;97.91
5691;BME280;2870;42.680;23.364;2022-11-14T07:45:30;96194.88;;;5.61;97.24
5691;BME280;2870;42.680;23.364;2022-11-14T07:47:59;96194.66;;;5.76;95.54
5691;BME280;2870;42.680;23.364;2022-11-14T07:50:28;96199.44;;;5.64;95.83
5691;BME280;2870;42.680;23.364;2022-11-14T07:52:55;96203.03;;;5.81;95.26
5691;BME280;2870;42.680;23.364;2022-11-14T07:55:22;96203.03;;;5.81;95.09
5691;BME280;2870;42.680;23.364;2022-11-14T07:57:51;96194.44;;;5.79;94.12
5691;BME280;2870;42.680;23.364;2022-11-14T08:00:19;96187.84;;;5.77;94.68
5691;BME280;2870;42.680;23.364;2022-11-14T08:02:46;96191.97;;;5.93;93.57
5691;BME280;2870;42.680;23.364;2022-11-14T08:05:14;96189.47;;;6.17;94.38
5691;BME280;2870;42.680;23.364;2022-11-14T08:07:41;96193.72;;;5.90;94.30
5691;BME280;2870;42.680;23.364;2022-11-14T08:10:09;96191.06;;;5.53;95.47
5691;BME280;2870;42.680;23.364;2022-11-14T08:12:36;96188.31;;;5.70;95.64
5691;BME280;2870;42.680;23.364;2022-11-14T08:15:05;96193.38;;;5.71;95.46
5691;BME280;2870;42.680;23.364;2022-11-14T08:17:32;96193.72;;;5.90;95.11
5691;BME280;2870;42.680;23.364;2022-11-14T08:19:58;96191.91;;;5.87;94.68
5691;BME280;2870;42.680;23.364;2022-11-14T08:22:27;96184.63;;;6.01;94.66
5691;BME280;2870;42.680;23.364;2022-11-14T08:24:53;96191.88;;;5.76;95.96
5691;BME280;2870;42.680;23.364;2022-11-14T08:27:20;96188.72;;;6.39;93.75
5691;BME280;2870;42.680;23.364;2022-11-14T08:29:47;96175.81;;;6.36;91.74
5691;BME280;2870;42.680;23.364;2022-11-14T08:32:15;96189.97;;;6.21;92.57
5691;BME280;2870;42.680;23.364;2022-11-14T08:34:42;96180.34;;;6.33;92.33
5691;BME280;2870;42.680;23.364;2022-11-14T08:37:09;96190.97;;;5.96;94.25
5691;BME280;2870;42.680;23.364;2022-11-14T08:39:37;96189.75;;;6.47;93.30
5691;BME280;2870;42.680;23.364;2022-11-14T08:42:04;96179.84;;;6.52;91.96
5691;BME280;2870;42.680;23.364;2022-11-14T08:44:31;96183.91;;;6.51;91.06
5691;BME280;2870;42.680;23.364;2022-11-14T08:46:57;96184.41;;;6.55;90.73
5691;BME280;2870;42.680;23.364;2022-11-14T08:49:24;96173.78;;;6.42;91.12
5691;BME280;2870;42.680;23.364;2022-11-14T08:51:51;96180.34;;;6.28;91.39
5691;BME280;2870;42.680;23.364;2022-11-14T08:54:18;96178.09;;;6.26;92.67
5691;BME280;2870;42.680;23.364;2022-11-14T08:56:46;96172.25;;;6.24;91.94
5691;BME280;2870;42.680;23.364;2022-11-14T08:59:13;96163.91;;;6.41;92.46
5691;BME280;2870;42.680;23.364;2022-11-14T09:01:41;96161.13;;;6.47;91.44
5691;BME280;2870;42.680;23.364;2022-11-14T09:04:07;96161.06;;;6.69;91.27
5691;BME280;2870;42.680;23.364;2022-11-14T09:06:34;96152.97;;;6.71;90.40
5691;BME280;2870;42.680;23.364;2022-11-14T09:09:01;96150.66;;;6.92;90.29
5691;BME280;2870;42.680;23.364;2022-11-14T09:11:28;96156.03;;;6.23;92.55
5691;BME280;2870;42.680;23.364;2022-11-14T09:13:56;96132.72;;;6.54;91.83
5691;BME280;2870;42.680;23.364;2022-11-14T09:16:23;96144.09;;;6.78;91.39
5691;BME280;2870;42.680;23.364;2022-11-14T09:18:50;96137.66;;;7.17;89.82
5691;BME280;2870;42.680;23.364;2022-11-14T09:21:17;96137.59;;;7.34;90.28
5691;BME280;2870;42.680;23.364;2022-11-14T09:23:45;96127.84;;;6.88;90.01
5691;BME280;2870;42.680;23.364;2022-11-14T09:26:13;96125.13;;;6.54;91.76
5691;BME280;2870;42.680;23.364;2022-11-14T09:28:40;96125.47;;;7.09;89.30
5691;BME280;2870;42.680;23.364;2022-11-14T09:31:10;96128.72;;;7.30;88.42
5691;BME280;2870;42.680;23.364;2022-11-14T09:33:37;96121.25;;;7.55;88.54
5691;BME280;2870;42.680;23.364;2022-11-14T09:36:07;96124.63;;;7.36;87.74
5691;BME280;2870;42.680;23.364;2022-11-14T09:38:34;96128.78;;;7.07;87.83
5691;BME280;2870;42.680;23.364;2022-11-14T09:41:09;96121.91;;;7.14;89.45
5691;BME280;2870;42.680;23.364;2022-11-14T09:43:52;96126.84;;;6.80;89.96
5691;BME280;2870;42.680;23.364;2022-11-14T09:46:29;96125.94;;;7.24;89.65
5691;BME280;2870;42.680;23.364;2022-11-14T09:48:57;96117.50;;;7.41;87.03
5691;BME280;2870;42.680;23.364;2022-11-14T09:51:27;96109.75;;;7.64;86.93
5691;BME280;2870;42.680;23.364;2022-11-14T09:53:59;96108.50;;;8.06;85.25
5691;BME280;2870;42.680;23.364;2022-11-14T09:56:28;96105.56;;;7.87;85.14
5691;BME280;2870;42.680;23.364;2022-11-14T09:58:55;96105.75;;;8.61;83.20
5691;BME280;2870;42.680;23.364;2022-11-14T10:01:33;96105.72;;;9.34;79.42
5691;BME280;2870;42.680;23.364;2022-11-14T10:04:07;96099.22;;;9.26;79.77
5691;BME280;2870;42.680;23.364;2022-11-14T10:06:45;96092.25;;;9.51;78.03
5691;BME280;2870;42.680;23.364;2022-11-14T10:09:33;96094.16;;;9.62;76.94
5691;BME280;2870;42.680;23.364;2022-11-14T10:12:10;96089.38;;;9.38;77.44
5691;BME280;2870;42.680;23.364;2022-11-14T10:15:11;96084.31;;;9.93;76.61
5691;BME280;2870;42.680;23.364;2022-11-14T10:17:51;96078.91;;;9.95;75.98
5691;BME280;2870;42.680;23.364;2022-11-14T10:20:27;96074.63;;;10.85;73.27
5691;BME280;2870;42.680;23.364;2022-11-14T10:23:05;96078.66;;;10.44;73.41
5691;BME280;2870;42.680;23.364;2022-11-14T10:25:44;96070.38;;;11.31;72.30
5691;BME280;2870;42.680;23.364;2022-11-14T10:28:27;96053.38;;;11.50;72.15
5691;BME280;2870;42.680;23.364;2022-11-14T10:31:01;96057.28;;;11.47;69.15
5691;BME280;2870;42.680;23.364;2022-11-14T10:33:49;96040.88;;;11.38;70.29
5691;BME280;2870;42.680;23.364;2022-11-14T10:36:29;96044.78;;;11.22;70.38
5691;BME280;2870;42.680;23.364;2022-11-14T10:39:04;96046.75;;;11.13;71.06
5691;BME280;2870;42.680;23.364;2022-11-14T10:41:36;96048.00;;;11.39;73.01
5691;BME280;2870;42.680;23.364;2022-11-14T10:44:08;96045.25;;;11.12;72.19
5691;BME280;2870;42.680;23.364;2022-11-14T10:46:39;96040.56;;;11.28;70.53
5691;BME280;2870;42.680;23.364;2022-11-14T10:49:15;96036.94;;;10.94;72.76
5691;BME280;2870;42.680;23.364;2022-11-14T10:51:45;96031.94;;;11.26;71.88
5691;BME280;2870;42.680;23.364;2022-11-14T10:54:18;96030.63;;;11.27;71.77
5691;BME280;2870;42.680;23.364;2022-11-14T10:56:49;96026.56;;;11.15;70.59
5691;BME280;2870;42.680;23.364;2022-11-14T10:59:16;96011.31;;;11.24;71.14
5691;BME280;2870;42.680;23.364;2022-11-14T11:01:44;96020.81;;;11.21;72.61
5691;BME280;2870;42.680;23.364;2022-11-14T11:04:18;96008.97;;;10.75;73.76
5691;BME280;2870;42.680;23.364;2022-11-14T11:06:45;96007.22;;;11.25;72.49
5691;BME280;2870;42.680;23.364;2022-11-14T11:09:14;96011.66;;;11.54;72.17
5691;BME280;2870;42.680;23.364;2022-11-14T11:12:00;96005.97;;;11.33;71.59
5691;BME280;2870;42.680;23.364;2022-11-14T11:14:28;96000.31;;;11.12;72.97
5691;BME280;2870;42.680;23.364;2022-11-14T11:17:14;95995.19;;;11.37;71.60
5691;BME280;2870;42.680;23.364;2022-11-14T11:19:44;96003.69;;;11.45;71.73
5691;BME280;2870;42.680;23.364;2022-11-14T11:22:34;95996.66;;;11.04;72.37
5691;BME280;2870;42.680;23.364;2022-11-14T11:25:01;95997.28;;;11.24;72.51
5691;BME280;2870;42.680;23.364;2022-11-14T11:27:29;95994.03;;;11.20;73.06
5691;BME280;2870;42.680;23.364;2022-11-14T11:30:06;95992.13;;;11.01;73.09
5691;BME280;2870;42.680;23.364;2022-11-14T11:32:34;95984.09;;;11.19;73.02
5691;BME280;2870;42.680;23.364;2022-11-14T11:35:03;95992.91;;;11.36;73.22
5691;BME280;2870;42.680;23.364;2022-11-14T11:37:39;95982.25;;;11.21;72.62
5691;BME280;2870;42.680;23.364;2022-11-14T11:40:14;95986.28;;;10.99;73.52
5691;BME280;2870;42.680;23.364;2022-11-14T11:42:45;95986.28;;;10.99;73.86
5691;BME280;2870;42.680;23.364;2022-11-14T11:45:16;95985.53;;;10.99;73.91
5691;BME280;2870;42.680;23.364;2022-11-14T11:47:50;95985.09;;;11.08;73.43
5691;BME280;2870;42.680;23.364;2022-11-14T11:50:21;95978.09;;;10.88;74.33
5691;BME280;2870;42.680;23.364;2022-11-14T11:52:56;95973.56;;;10.85;75.19
5691;BME280;2870;42.680;23.364;2022-11-14T11:55:31;95971.13;;;11.15;73.95
5691;BME280;2870;42.680;23.364;2022-11-14T11:58:01;95967.16;;;11.11;73.76
5691;BME280;2870;42.680;23.364;2022-11-14T12:00:30;95960.00;;;11.23;73.46
5691;BME280;2870;42.680;23.364;2022-11-14T12:02:57;95953.59;;;11.36;73.18
5691;BME280;2870;42.680;23.364;2022-11-14T12:05:31;95956.94;;;11.34;73.15
5691;BME280;2870;42.680;23.364;2022-11-14T12:08:03;95959.22;;;11.57;72.79
5691;BME280;2870;42.680;23.364;2022-11-14T12:10:36;95961.78;;;11.34;72.98
5691;BME280;2870;42.680;23.364;2022-11-14T12:16:02;95955.78;;;11.51;73.01
5691;BME280;2870;42.680;23.364;2022-11-14T12:22:03;95939.38;;;11.76;72.25
5691;BME280;2870;42.680;23.364;2022-11-14T12:27:42;95933.44;;;11.24;73.13
5691;BME280;2870;42.680;23.364;2022-11-14T12:30:17;95930.63;;;11.45;73.45
5691;BME280;2870;42.680;23.364;2022-11-14T12:32:48;95922.03;;;11.64;73.24
5691;BME280;2870;42.680;23.364;2022-11-14T12:35:19;95924.31;;;11.31;73.03
5691;BME280;2870;42.680;23.364;2022-11-14T12:37:52;95931.88;;;11.02;74.54
5691;BME280;2870;42.680;23.364;2022-11-14T12:40:25;95917.56;;;11.48;73.00
5691;BME280;2870;42.680;23.364;2022-11-14T12:42:53;95923.69;;;11.80;72.69
5691;BME280;2870;42.680;23.364;2022-11-14T12:45:58;95917.94;;;11.86;71.94
5691;BME280;2870;42.680;23.364;2022-11-14T12:48:30;95915.53;;;11.90;72.74
5691;BME280;2870;42.680;23.364;2022-11-14T12:50:58;95919.09;;;11.90;72.81
5691;BME280;2870;42.680;23.364;2022-11-14T12:53:38;95918.81;;;11.60;72.55
5691;BME280;2870;42.680;23.364;2022-11-14T12:59:25;95910.56;;;11.41;73.62
5691;BME280;2870;42.680;23.364;2022-11-14T13:02:33;95903.88;;;11.65;72.79
5691;BME280;2870;42.680;23.364;2022-11-14T13:05:21;95897.91;;;11.89;72.09
5691;BME280;2870;42.680;23.364;2022-11-14T13:08:04;95901.03;;;12.07;72.15
5691;BME280;2870;42.680;23.364;2022-11-14T13:10:38;95898.66;;;11.90;71.88
5691;BME280;2870;42.680;23.364;2022-11-14T13:13:06;95885.88;;;11.68;71.99
5691;BME280;2870;42.680;23.364;2022-11-14T13:15:52;95906.13;;;11.66;72.28
5691;BME280;2870;42.680;23.364;2022-11-14T13:18:50;95885.75;;;11.74;71.78
5691;BME280;2870;42.680;23.364;2022-11-14T13:21:35;95887.28;;;11.75;72.75
5691;BME280;2870;42.680;23.364;2022-11-14T13:24:12;95887.81;;;11.94;72.94
5691;BME280;2870;42.680;23.364;2022-11-14T13:26:46;95886.16;;;11.78;72.89
5691;BME280;2870;42.680;23.364;2022-11-14T13:35:50;95879.00;;;12.18;71.06
5691;BME280;2870;42.680;23.364;2022-11-14T13:38:55;95874.47;;;12.15;71.00
5691;BME280;2870;42.680;23.364;2022-11-14T13:45:30;95873.78;;;11.94;71.69
5691;BME280;2870;42.680;23.364;2022-11-14T13:48:52;95875.22;;;11.66;73.18
5691;BME280;2870;42.680;23.364;2022-11-14T13:51:25;95876.53;;;11.86;72.58
5691;BME280;2870;42.680;23.364;2022-11-14T13:53:54;95880.69;;;11.93;72.15